Hauptseite
METAR-TAF:

METAR-TAF

Flughäfen :

Pohnpei, Mikronesien

Flughafen Pohnpei

Breite: 06-59N, Länge: 158-12E, Höhe: 2 m

Beobachtung

Neuester Wetterbericht von vor 9 Stunden und 30 Minuten, um 17:50 UTC
Wind 6 kt aus Ost
Temperatur 27°C
Luftfeuchtigkeit 89%
Luftdruck 1009 hPa
Sichtweite: 24.1 km
Durchbrochene Bewölkung in der Höhe von 1800 ft, Towering cumulus.
Durchbrochene Bewölkung in der Höhe von 12000 ft
Geschlossene Wolkendecke in der Höhe von 30000 ft

METAR: PTPN 291750Z 09006KT 15SM BKN018TCU BKN120 OVC300 27/25 A2981 RMK TCU SE-SW LAST

Zeit: 14:20 (03:20 UTC)

Prognose

Neuester Wetterbericht von vor 10 Stunden und 0 Minuten, um 17:20 UTC
Gültige Prognose vom 29 um 18 UTC bis 30 um 18 UTC
Wind 14 kt aus Ost/Nordost
Sichtweite: 10 km
Aufgelockert bewölkt in der Höhe von 1800 ft
Aufgelockert bewölkt in der Höhe von 16000 ft
Schauer in der Nähe

TAF: PTPN 291720Z 2918/3018 07014KT P6SM VCSH SCT018 SCT160

Wetterbeobachtungen und Prognosen von mehr als 4000 Flughäfen (METAR und TAF Bericht).

Die verfügbaren Stationen werden durch gelbe und rote Markierungen auf der Karte dargestellt.

Führen Sie die Maus auf sie, um den Namen der Station zu sehen.

Darauf klicken, um die Beobachtung von Wetterbeobachtungen und Prognosen zu sehen.

Um die Karte zu ändern : klicken Sie auf den grünen Tasten mit einem schwarzen Kreuz Zum Vergrößern, auf den grünen Button mit einem Gedankenstrich zu verkleinern, oder auf die grünen Pfeile für benachbarte Karten.


METAR-TAF: